Time;durP1;ratioP1;P1;durP2;ratioP2;P2;SDS_P1;SDS_P2;PMS_P1;PMS_P2;Temp;Humidity;BMP_temperature;BMP_pressure;BME280_temperature;BME280_humidity;BME280_pressure;Samples;Min_cycle;Max_cycle;Signal;HPM_P1;HPM_P2
2022/11/04 00:01:40;;;;;;;;;;;;;;;9.33;97.64;100096.72;5014757;28;20270;-91
2022/11/04 00:04:06;;;;;;;;;;;;;;;9.32;97.85;100099.31;5014277;28;19913;-91
2022/11/04 00:06:31;;;;;;;;;;;;;;;9.32;97.53;100107.94;5014756;28;19920;-91
2022/11/04 00:08:57;;;;;;;;;;;;;;;9.32;97.85;100099.31;5014379;28;19914;-90
2022/11/04 00:14:08;;;;;;;;;;;;;;;9.30;97.32;100107.13;5013944;28;19943;-90
2022/11/04 00:19:17;;;;;;;;;;;;;;;9.32;97.09;100105.38;5014871;28;19924;-90
2022/11/04 00:29:51;;;;;;;;;;;;;;;9.24;96.82;100117.59;5018248;28;19952;-90
2022/11/04 00:35:00;;;;;;;;;;;;;;;9.21;97.02;100122.88;5018332;28;19920;-90
2022/11/04 00:37:25;;;;;;;;;;;;;;;9.19;96.94;100117.69;5017824;28;19909;-91
2022/11/04 00:39:51;;;;;;;;;;;;;;;9.19;97.16;100124.63;5017997;28;19920;-89
2022/11/04 00:42:16;;;;;;;;;;;;;;;9.18;97.55;100122.91;5018235;28;19913;-91
2022/11/04 00:44:41;;;;;;;;;;;;;;;9.17;98.02;100132.44;5017799;28;19936;-91
2022/11/04 00:47:06;;;;;;;;;;;;;;;9.15;98.72;100130.75;5055593;23;19968;-92
2022/11/04 00:49:31;;;;;;;;;;;;;;;9.14;98.56;100129.91;5057550;28;19917;-91
2022/11/04 00:51:56;;;;;;;;;;;;;;;9.20;97.82;100134.09;5057206;28;20357;-91
2022/11/04 00:54:22;;;;;;;;;;;;;;;9.16;98.57;100129.88;5048049;22;19921;-91
2022/11/04 00:56:50;;;;;;;;;;;;;;;9.16;99.18;100132.44;5039246;28;19913;-90
2022/11/04 00:59:16;;;;;;;;;;;;;;;9.15;99.21;100138.50;5057526;28;19913;-91
2022/11/04 01:01:41;;;;;;;;;;;;;;;9.14;99.34;100142.84;5057761;28;19967;-91
2022/11/04 01:04:06;;;;;;;;;;;;;;;9.15;99.32;100139.38;5057965;28;20031;-91
2022/11/04 01:06:32;;;;;;;;;;;;;;;9.14;99.56;100148.03;5044873;28;19958;-91
2022/11/04 01:08:59;;;;;;;;;;;;;;;9.12;99.99;100152.38;5037424;28;19932;-89
2022/11/04 01:11:24;;;;;;;;;;;;;;;9.11;99.59;100142.91;5037001;28;19913;-90
2022/11/04 01:13:50;;;;;;;;;;;;;;;9.11;100.00;100148.09;5036780;28;19913;-90
2022/11/04 01:16:15;;;;;;;;;;;;;;;9.11;99.62;100154.13;5037513;28;19913;-92
2022/11/04 01:18:41;;;;;;;;;;;;;;;9.06;100.00;100144.75;5037534;28;20015;-90
2022/11/04 01:21:07;;;;;;;;;;;;;;;9.03;100.00;100155.16;5037235;28;20444;-89
2022/11/04 01:23:33;;;;;;;;;;;;;;;9.01;99.99;100162.94;5037775;28;19975;-88
2022/11/04 01:25:58;;;;;;;;;;;;;;;9.02;99.79;100167.22;5036826;28;19921;-88
2022/11/04 01:28:23;;;;;;;;;;;;;;;8.98;100.00;100172.50;5041551;28;19966;-88
2022/11/04 01:30:48;;;;;;;;;;;;;;;8.93;100.00;100172.59;5042854;28;19920;-89
2022/11/04 01:33:13;;;;;;;;;;;;;;;8.91;100.00;100169.19;5038760;28;20000;-90
2022/11/04 01:35:51;;;;;;;;;;;;;;;8.89;100.00;100160.63;5056926;28;20379;-90
2022/11/04 01:38:18;;;;;;;;;;;;;;;8.90;100.00;100162.28;5056920;28;19966;-90
2022/11/04 01:40:49;;;;;;;;;;;;;;;8.89;100.00;100163.19;5057162;28;20007;-90
2022/11/04 01:43:18;;;;;;;;;;;;;;;8.91;100.00;100164.00;5056834;28;19935;-90
2022/11/04 01:45:46;;;;;;;;;;;;;;;8.91;100.00;100161.41;5057019;28;20367;-90
2022/11/04 01:48:19;;;;;;;;;;;;;;;8.86;100.00;100166.69;5056532;28;19913;-90
2022/11/04 01:50:45;;;;;;;;;;;;;;;8.85;100.00;100162.38;5056888;28;20395;-90
2022/11/04 01:53:14;;;;;;;;;;;;;;;8.82;100.00;100162.47;5056004;28;19917;-90
2022/11/04 01:55:42;;;;;;;;;;;;;;;8.78;100.00;100166.81;5056563;28;19920;-89
2022/11/04 01:58:14;;;;;;;;;;;;;;;8.73;100.00;100160.88;5056218;28;19916;-89
2022/11/04 02:00:40;;;;;;;;;;;;;;;8.70;100.00;100167.88;5056376;28;19913;-90
2022/11/04 02:03:16;;;;;;;;;;;;;;;8.69;99.86;100153.22;5039537;28;19917;-90
2022/11/04 02:05:42;;;;;;;;;;;;;;;8.65;100.00;100168.78;5036422;28;20012;-91
2022/11/04 02:08:08;;;;;;;;;;;;;;;8.64;99.75;100167.06;5035790;28;19998;-88
2022/11/04 02:10:33;;;;;;;;;;;;;;;8.60;99.92;100169.75;5036426;28;19967;-90
2022/11/04 02:12:59;;;;;;;;;;;;;;;8.55;100.00;100172.41;5036215;28;19913;-89
2022/11/04 02:15:37;;;;;;;;;;;;;;;8.53;100.00;100178.50;5036162;28;19952;-91
2022/11/04 02:18:13;;;;;;;;;;;;;;;8.49;100.00;100175.13;5036236;28;20332;-89
2022/11/04 02:21:08;;;;;;;;;;;;;;;8.46;100.00;100180.31;5036331;28;19913;-90
2022/11/04 02:23:33;;;;;;;;;;;;;;;8.40;100.00;100170.94;4982551;28;19998;-90
2022/11/04 02:25:58;;;;;;;;;;;;;;;8.39;100.00;100179.56;5036535;28;19959;-89
2022/11/04 02:28:26;;;;;;;;;;;;;;;8.35;100.00;100180.47;5035927;28;19913;-89
2022/11/04 02:30:57;;;;;;;;;;;;;;;8.29;100.00;100184.03;5049555;28;19960;-89
2022/11/04 02:33:28;;;;;;;;;;;;;;;8.27;100.00;100179.75;5055560;28;20369;-90
2022/11/04 02:36:02;;;;;;;;;;;;;;;8.23;100.00;100191.91;5055955;28;19913;-90
2022/11/04 02:38:51;;;;;;;;;;;;;;;8.23;100.00;100197.06;5056045;28;19917;-91
2022/11/04 02:41:25;;;;;;;;;;;;;;;8.21;100.00;100192.81;5044680;28;19958;-90
2022/11/04 02:44:04;;;;;;;;;;;;;;;8.19;99.95;100185.94;5055269;28;19913;-90
2022/11/04 02:46:43;;;;;;;;;;;;;;;8.20;100.00;100186.75;5055863;28;20009;-90
2022/11/04 02:49:13;;;;;;;;;;;;;;;8.15;100.00;100183.41;5054939;28;20380;-90
2022/11/04 02:51:54;;;;;;;;;;;;;;;8.11;100.00;100190.34;5055506;28;20403;-90
2022/11/04 02:54:25;;;;;;;;;;;;;;;8.08;100.00;100189.53;5055099;28;19995;-90
2022/11/04 02:56:53;;;;;;;;;;;;;;;8.04;100.00;100188.75;5043542;28;20473;-90
2022/11/04 02:59:24;;;;;;;;;;;;;;;8.03;100.00;100189.63;5035132;28;20003;-90
2022/11/04 03:01:51;;;;;;;;;;;;;;;7.98;100.00;100183.69;5035371;28;19920;-90
2022/11/04 03:04:20;;;;;;;;;;;;;;;7.95;100.00;100192.31;5035472;28;19924;-90
2022/11/04 03:06:47;;;;;;;;;;;;;;;7.93;100.00;100188.91;5035359;28;20266;-90
2022/11/04 03:09:14;;;;;;;;;;;;;;;7.93;100.00;100190.63;5035094;28;19913;-90
2022/11/04 03:11:41;;;;;;;;;;;;;;;7.91;100.00;100185.50;5035256;28;20035;-91
2022/11/04 03:14:09;;;;;;;;;;;;;;;7.92;100.00;100204.41;5035182;28;20015;-90
2022/11/04 03:16:37;;;;;;;;;;;;;;;7.91;100.00;100200.13;5035165;28;20011;-91
2022/11/04 03:19:08;;;;;;;;;;;;;;;7.89;99.80;100206.16;5034904;28;19955;-90
2022/11/04 03:21:36;;;;;;;;;;;;;;;7.86;100.00;100206.22;5034703;28;20362;-91
2022/11/04 03:24:02;;;;;;;;;;;;;;;7.85;100.00;100216.56;5038995;28;19912;-90
2022/11/04 03:26:29;;;;;;;;;;;;;;;7.82;100.00;100212.31;5054654;28;19917;-90
2022/11/04 03:29:03;;;;;;;;;;;;;;;7.81;100.00;100214.94;5054950;28;19913;-91
2022/11/04 03:31:36;;;;;;;;;;;;;;;7.78;100.00;100213.22;5054810;28;19936;-91
2022/11/04 03:34:01;;;;;;;;;;;;;;;7.78;100.00;100220.13;5054497;28;19965;-91
2022/11/04 03:36:27;;;;;;;;;;;;;;;7.77;99.97;100223.59;5054934;28;20003;-90
2022/11/04 03:38:52;;;;;;;;;;;;;;;7.75;99.69;100218.44;5054269;28;19938;-91
2022/11/04 03:41:23;;;;;;;;;;;;;;;7.71;100.00;100225.34;5054936;28;20003;-91
2022/11/04 03:43:48;;;;;;;;;;;;;;;7.69;100.00;100224.56;5054848;28;19908;-91
2022/11/04 03:46:13;;;;;;;;;;;;;;;7.67;100.00;100223.72;5054656;28;19943;-90
2022/11/04 03:48:39;;;;;;;;;;;;;;;7.65;99.77;100224.63;5051157;28;19955;-90
2022/11/04 03:51:04;;;;;;;;;;;;;;;7.62;100.00;100227.22;5034667;28;19949;-90
2022/11/04 03:53:30;;;;;;;;;;;;;;;7.61;99.97;100222.94;5050000;28;19917;-91
2022/11/04 03:56:13;;;;;;;;;;;;;;;7.60;99.70;100221.22;5053723;28;20394;-90
2022/11/04 03:58:41;;;;;;;;;;;;;;;7.56;99.61;100223.84;5054246;28;19912;-90
2022/11/04 04:01:27;;;;;;;;;;;;;;;7.54;99.32;100222.16;5053712;28;19917;-90
2022/11/04 04:04:03;;;;;;;;;;;;;;;7.51;99.33;100214.44;5040230;28;19912;-91
2022/11/04 04:06:30;;;;;;;;;;;;;;;7.49;99.00;100219.63;5054865;28;19971;-91
2022/11/04 04:08:57;;;;;;;;;;;;;;;7.49;99.12;100211.88;5059702;28;19913;-91
2022/11/04 04:11:29;;;;;;;;;;;;;;;7.49;98.92;100218.75;5060042;28;19930;-90
2022/11/04 04:14:03;;;;;;;;;;;;;;;7.46;99.03;100221.41;5058656;28;19913;-91
2022/11/04 04:16:35;;;;;;;;;;;;;;;7.43;98.92;100230.03;5054547;28;19938;-91
2022/11/04 04:19:07;;;;;;;;;;;;;;;7.42;98.83;100231.75;5054095;28;19939;-90
2022/11/04 04:21:38;;;;;;;;;;;;;;;7.39;99.02;100230.94;5053503;28;20365;-91
2022/11/04 04:29:35;;;;;;;;;;;;;;;7.28;98.60;100245.72;5054059;28;19919;-91
2022/11/04 04:32:02;;;;;;;;;;;;;;;7.26;98.51;100251.75;5053712;28;19919;-90
2022/11/04 04:34:28;;;;;;;;;;;;;;;7.22;98.54;100250.06;5053758;28;19936;-91
2022/11/04 04:37:00;;;;;;;;;;;;;;;7.18;98.27;100250.97;5054083;28;19912;-90
2022/11/04 04:47:29;;;;;;;;;;;;;;;7.06;97.98;100264.84;5054511;28;19912;-90
2022/11/04 04:49:56;;;;;;;;;;;;;;;7.00;97.84;100261.47;5034286;28;19912;-91
2022/11/04 04:52:23;;;;;;;;;;;;;;;6.95;97.74;100261.53;5034297;28;19924;-91
2022/11/04 04:54:48;;;;;;;;;;;;;;;6.92;97.84;100257.25;5033985;28;20357;-90
2022/11/04 04:57:14;;;;;;;;;;;;;;;6.91;97.84;100259.84;5033708;28;19924;-91
2022/11/04 04:59:39;;;;;;;;;;;;;;;6.88;97.75;100263.28;5033838;28;19913;-91
2022/11/04 05:02:04;;;;;;;;;;;;;;;6.85;97.89;100263.34;5033829;28;19980;-91
2022/11/04 05:04:29;;;;;;;;;;;;;;;6.84;97.82;100266.78;5033801;28;19917;-91
2022/11/04 05:06:54;;;;;;;;;;;;;;;6.82;97.59;100267.66;5033873;28;19916;-90
2022/11/04 05:09:20;;;;;;;;;;;;;;;6.81;97.65;100269.41;5033609;28;19912;-91
2022/11/04 05:11:45;;;;;;;;;;;;;;;6.79;97.71;100265.97;5035603;28;19960;-91
2022/11/04 05:14:10;;;;;;;;;;;;;;;6.74;97.51;100272.91;5037282;28;19925;-90
2022/11/04 05:16:35;;;;;;;;;;;;;;;6.72;97.53;100279.78;5037467;28;19920;-91
2022/11/04 05:19:00;;;;;;;;;;;;;;;6.70;97.54;100281.53;5038126;28;20371;-90
2022/11/04 05:21:26;;;;;;;;;;;;;;;6.69;97.44;100290.13;5057166;28;19913;-91
2022/11/04 05:23:51;;;;;;;;;;;;;;;6.69;97.45;100288.41;5056978;28;20281;-90
2022/11/04 05:26:16;;;;;;;;;;;;;;;6.68;97.32;100284.13;5057010;28;19923;-91
2022/11/04 05:28:41;;;;;;;;;;;;;;;6.68;97.37;100294.44;5057270;28;19909;-90
2022/11/04 05:31:06;;;;;;;;;;;;;;;6.64;97.42;100298.75;5057127;28;19978;-91
2022/11/04 05:33:32;;;;;;;;;;;;;;;6.60;97.71;100301.38;5056374;28;19958;-91
2022/11/04 05:36:04;;;;;;;;;;;;;;;6.57;97.63;100304.81;5056964;28;20325;-91
2022/11/04 05:38:29;;;;;;;;;;;;;;;6.58;97.80;100301.38;5057106;28;19950;-91
2022/11/04 05:40:56;;;;;;;;;;;;;;;6.60;97.71;100307.38;5056294;28;20333;-91
2022/11/04 05:43:21;;;;;;;;;;;;;;;6.65;97.62;100305.63;5055017;28;20016;-91
2022/11/04 05:45:46;;;;;;;;;;;;;;;6.71;97.71;100316.75;5038754;28;19960;-91
2022/11/04 05:48:11;;;;;;;;;;;;;;;6.75;97.55;100319.31;5036683;28;19920;-93
2022/11/04 05:50:37;;;;;;;;;;;;;;;6.79;97.47;100313.25;5036910;28;19939;-91
2022/11/04 05:53:02;;;;;;;;;;;;;;;6.84;97.73;100320.97;5036497;28;19996;-91
2022/11/04 05:55:27;;;;;;;;;;;;;;;6.88;97.76;100326.94;5036846;28;19966;-91
2022/11/04 05:57:52;;;;;;;;;;;;;;;6.90;97.71;100312.31;5036941;28;20293;-91
2022/11/04 06:00:18;;;;;;;;;;;;;;;6.92;97.65;100318.31;5036650;28;19913;-91
2022/11/04 06:02:43;;;;;;;;;;;;;;;6.94;97.70;100320.00;5036748;28;19920;-91
2022/11/04 06:05:09;;;;;;;;;;;;;;;6.95;97.74;100332.03;5036558;28;20396;-91
2022/11/04 06:07:34;;;;;;;;;;;;;;;7.00;97.83;100323.38;5036444;28;19913;-91
2022/11/04 06:09:59;;;;;;;;;;;;;;;7.00;97.78;100326.84;5035951;28;20423;-92
2022/11/04 06:12:25;;;;;;;;;;;;;;;7.02;97.65;100325.13;5036433;28;19913;-91
2022/11/04 06:14:50;;;;;;;;;;;;;;;7.04;97.65;100328.50;5036763;28;19917;-91
2022/11/04 06:17:16;;;;;;;;;;;;;;;7.03;97.51;100329.41;5036603;28;20004;-92
2022/11/04 06:19:42;;;;;;;;;;;;;;;7.04;97.64;100330.25;5036481;28;19913;-92
2022/11/04 06:22:08;;;;;;;;;;;;;;;7.05;97.56;100334.53;5035135;28;19959;-91
2022/11/04 06:24:33;;;;;;;;;;;;;;;7.03;97.45;100331.97;5036046;28;19968;-91
2022/11/04 06:26:58;;;;;;;;;;;;;;;7.01;97.37;100344.03;5035892;28;19944;-90
2022/11/04 06:29:24;;;;;;;;;;;;;;;6.98;97.48;100340.63;5035695;28;20358;-89
2022/11/04 06:31:49;;;;;;;;;;;;;;;6.95;97.61;100344.94;5035255;28;19939;-90
2022/11/04 06:34:14;;;;;;;;;;;;;;;6.96;97.65;100350.94;5035174;28;19917;-90
2022/11/04 06:36:39;;;;;;;;;;;;;;;6.97;97.66;100346.66;5036062;28;19913;-90
2022/11/04 06:39:05;;;;;;;;;;;;;;;6.97;97.65;100346.66;5045418;28;20003;-94
2022/11/04 06:41:30;;;;;;;;;;;;;;;6.99;97.85;100345.78;5055647;28;19912;-92
2022/11/04 06:43:55;;;;;;;;;;;;;;;7.00;97.70;100341.44;5055655;28;20384;-90
2022/11/04 06:46:23;;;;;;;;;;;;;;;7.00;97.70;100351.78;5055872;28;19919;-91
2022/11/04 06:48:48;;;;;;;;;;;;;;;7.00;97.53;100354.34;5056279;28;19944;-92
2022/11/04 06:51:13;;;;;;;;;;;;;;;7.00;97.55;100360.38;5059439;28;19920;-92
2022/11/04 06:53:38;;;;;;;;;;;;;;;7.00;97.62;100368.13;5060006;28;20356;-91
2022/11/04 06:56:05;;;;;;;;;;;;;;;6.95;98.24;100368.16;5055968;28;19913;-92
2022/11/04 06:58:30;;;;;;;;;;;;;;;6.91;98.41;100378.53;5034227;28;19909;-91
2022/11/04 07:00:55;;;;;;;;;;;;;;;6.88;98.49;100373.38;5034785;28;20354;-90
2022/11/04 07:03:20;;;;;;;;;;;;;;;6.90;98.29;100380.22;5035254;28;20346;-91
2022/11/04 07:05:45;;;;;;;;;;;;;;;6.95;98.28;100387.94;5035418;28;19914;-91
2022/11/04 07:08:11;;;;;;;;;;;;;;;7.01;98.16;100387.91;5052926;28;19916;-91
2022/11/04 07:10:36;;;;;;;;;;;;;;;7.07;97.94;100387.84;5055014;28;19964;-91
2022/11/04 07:13:01;;;;;;;;;;;;;;;7.12;98.31;100387.78;5055039;28;19951;-92
2022/11/04 07:15:26;;;;;;;;;;;;;;;7.16;98.68;100396.38;5054875;28;19916;-91
2022/11/04 07:17:51;;;;;;;;;;;;;;;7.16;98.48;100394.66;5055909;28;19917;-91
2022/11/04 07:20:16;;;;;;;;;;;;;;;7.19;98.34;100402.38;5036994;28;20293;-91
2022/11/04 07:22:42;;;;;;;;;;;;;;;7.26;98.31;100405.78;5035041;28;19913;-91
2022/11/04 07:25:07;;;;;;;;;;;;;;;7.34;98.47;100403.09;5034860;28;19940;-91
2022/11/04 07:27:32;;;;;;;;;;;;;;;7.40;98.37;100409.06;5034720;28;20208;-91
2022/11/04 07:29:57;;;;;;;;;;;;;;;7.46;98.53;100402.16;5034670;28;19948;-91
2022/11/04 07:32:23;;;;;;;;;;;;;;;7.51;98.49;100402.94;5034309;28;19909;-91
2022/11/04 07:34:48;;;;;;;;;;;;;;;7.55;98.48;100397.72;5034722;28;19913;-91
2022/11/04 07:37:13;;;;;;;;;;;;;;;7.58;98.61;100408.03;5034689;28;19995;-90
2022/11/04 07:39:38;;;;;;;;;;;;;;;7.58;99.04;100402.03;5034492;28;20010;-91
2022/11/04 07:42:06;;;;;;;;;;;;;;;7.63;98.63;100405.41;5049894;28;19917;-91
2022/11/04 07:44:32;;;;;;;;;;;;;;;7.66;98.84;100405.38;5054767;28;19919;-92
2022/11/04 07:46:57;;;;;;;;;;;;;;;7.68;98.90;100416.56;5054957;28;19913;-96
2022/11/04 07:49:24;;;;;;;;;;;;;;;7.73;98.80;100412.19;5055374;28;19912;-93
2022/11/04 07:51:49;;;;;;;;;;;;;;;7.79;98.69;100420.75;5054937;28;20307;-92
2022/11/04 07:54:14;;;;;;;;;;;;;;;7.85;98.62;100420.69;5054419;28;19962;-90
2022/11/04 07:56:39;;;;;;;;;;;;;;;7.91;98.87;100420.63;5054535;28;20417;-91
2022/11/04 07:59:05;;;;;;;;;;;;;;;7.98;99.13;100422.25;5054050;28;19916;-92
2022/11/04 08:01:31;;;;;;;;;;;;;;;8.04;99.27;100423.91;5058397;28;19939;-96
2022/11/04 08:03:57;;;;;;;;;;;;;;;8.12;98.85;100423.84;5076544;28;19917;-96
2022/11/04 08:06:23;;;;;;;;;;;;;;;8.19;98.77;100428.03;5077514;28;19992;-96
2022/11/04 08:08:48;;;;;;;;;;;;;;;8.27;98.55;100435.72;5076207;28;19917;-96
2022/11/04 08:11:18;;;;;;;;;;;;;;;8.34;98.71;100435.63;5073472;28;19916;-96
2022/11/04 08:13:44;;;;;;;;;;;;;;;8.42;98.74;100440.69;5075694;28;19936;-96
2022/11/04 08:16:12;;;;;;;;;;;;;;;8.48;98.93;100444.97;5077367;28;19921;-96
2022/11/04 08:18:37;;;;;;;;;;;;;;;8.55;99.40;100444.00;5455200;22;19919;-93
2022/11/04 08:21:03;;;;;;;;;;;;;;;8.58;99.52;100443.97;5096725;28;19952;-96
2022/11/04 08:23:29;;;;;;;;;;;;;;;8.63;98.88;100454.25;5107092;28;19916;-93
2022/11/04 08:25:55;;;;;;;;;;;;;;;8.69;98.77;100456.75;5094034;28;19916;-94
2022/11/04 08:28:20;;;;;;;;;;;;;;;8.79;98.59;100460.91;5092595;28;19912;-93
2022/11/04 08:30:51;;;;;;;;;;;;;;;8.94;98.98;100464.16;5093460;28;19916;-92
2022/11/04 08:33:16;;;;;;;;;;;;;;;9.11;100.00;100469.97;5094199;28;20364;-95
2022/11/04 08:35:41;;;;;;;;;;;;;;;9.29;100.00;100467.09;5095767;28;19923;-94
2022/11/04 08:38:07;;;;;;;;;;;;;;;9.47;99.96;100476.28;5106463;28;20003;-96
2022/11/04 08:40:32;;;;;;;;;;;;;;;9.63;99.66;100471.69;5108389;28;19923;-96
2022/11/04 08:42:57;;;;;;;;;;;;;;;9.81;99.58;100475.72;5095567;28;19920;-94
2022/11/04 08:45:22;;;;;;;;;;;;;;;9.97;99.52;100474.56;5094210;28;19935;-94
2022/11/04 08:47:48;;;;;;;;;;;;;;;10.11;99.63;100476.88;5104272;28;19912;-96
2022/11/04 08:50:14;;;;;;;;;;;;;;;10.20;98.72;100471.50;5097988;28;20372;-94
2022/11/04 08:52:39;;;;;;;;;;;;;;;10.27;99.12;100469.66;5096915;28;19916;-91
2022/11/04 08:55:04;;;;;;;;;;;;;;;10.30;98.53;100473.94;5096865;28;19923;-91
2022/11/04 08:57:30;;;;;;;;;;;;;;;10.32;98.60;100477.34;5097505;28;19926;-92
2022/11/04 08:59:55;;;;;;;;;;;;;;;10.38;97.42;100479.84;5097661;28;19954;-92
2022/11/04 09:02:21;;;;;;;;;;;;;;;10.39;97.54;100489.34;5080693;28;19912;-91
2022/11/04 09:04:46;;;;;;;;;;;;;;;10.39;97.25;100499.72;5076732;28;19920;-92
2022/11/04 09:07:11;;;;;;;;;;;;;;;10.36;96.80;100505.78;5091313;28;19920;-91
2022/11/04 09:09:38;;;;;;;;;;;;;;;10.32;96.73;100506.75;5097456;28;19962;-92
2022/11/04 09:12:03;;;;;;;;;;;;;;;10.29;96.63;100511.97;5095952;28;19916;-91
2022/11/04 09:14:28;;;;;;;;;;;;;;;10.22;96.64;100523.38;5078872;28;19912;-91
2022/11/04 09:16:54;;;;;;;;;;;;;;;10.15;96.22;100522.63;5096813;28;19926;-95
2022/11/04 09:19:19;;;;;;;;;;;;;;;10.12;96.42;100522.66;5096436;28;20334;-95
2022/11/04 09:21:45;;;;;;;;;;;;;;;10.15;96.66;100522.63;5097606;28;19916;-90
2022/11/04 09:24:11;;;;;;;;;;;;;;;10.17;96.67;100515.69;5097706;28;19923;-92
2022/11/04 09:26:36;;;;;;;;;;;;;;;10.20;96.68;100517.34;5097992;28;19916;-92
2022/11/04 09:29:01;;;;;;;;;;;;;;;10.23;96.77;100525.06;5098130;28;20299;-93
2022/11/04 09:31:28;;;;;;;;;;;;;;;10.28;96.77;100532.78;5088049;22;19920;-90
2022/11/04 09:33:54;;;;;;;;;;;;;;;10.33;96.90;100530.94;5080925;28;19916;-90
2022/11/04 09:36:19;;;;;;;;;;;;;;;10.40;97.04;100536.88;5081773;28;19919;-90
2022/11/04 09:38:44;;;;;;;;;;;;;;;10.42;97.04;100533.38;5076498;28;19939;-90
2022/11/04 09:41:19;;;;;;;;;;;;;;;10.47;97.03;100541.09;5076896;28;20276;-90
2022/11/04 09:43:47;;;;;;;;;;;;;;;10.50;96.81;100548.78;5076639;28;19919;-91
2022/11/04 09:46:12;;;;;;;;;;;;;;;10.55;96.96;100552.16;5076749;28;19913;-90
2022/11/04 09:48:44;;;;;;;;;;;;;;;10.58;97.05;100549.50;5076878;28;19921;-90
2022/11/04 09:51:10;;;;;;;;;;;;;;;10.59;96.80;100555.53;5076569;28;19978;-90
2022/11/04 09:53:55;;;;;;;;;;;;;;;10.60;96.69;100563.28;5082053;28;20360;-90
2022/11/04 09:56:36;;;;;;;;;;;;;;;10.60;96.13;100568.47;5098787;28;19995;-93
2022/11/04 09:59:02;;;;;;;;;;;;;;;10.62;96.45;100581.44;5095870;28;20003;-87
2022/11/04 10:01:27;;;;;;;;;;;;;;;10.62;96.13;100578.84;5095242;28;19951;-85
2022/11/04 10:03:58;;;;;;;;;;;;;;;10.62;95.92;100586.63;5095686;28;19950;-89
2022/11/04 10:06:32;;;;;;;;;;;;;;;10.61;95.45;100588.34;5096409;28;20337;-94
2022/11/04 10:09:13;;;;;;;;;;;;;;;10.63;95.57;100585.75;5097336;28;19942;-93
2022/11/04 10:11:44;;;;;;;;;;;;;;;10.67;95.37;100592.56;5096986;28;19908;-89
2022/11/04 10:14:26;;;;;;;;;;;;;;;10.74;95.69;100585.53;5095998;28;19927;-90
2022/11/04 10:17:10;;;;;;;;;;;;;;;10.82;95.55;100583.63;5096067;28;19908;-89
2022/11/04 10:20:02;;;;;;;;;;;;;;;10.91;95.28;100586.06;5096365;28;20356;-96
2022/11/04 10:22:32;;;;;;;;;;;;;;;11.03;95.23;100584.91;5100341;28;19912;-96
2022/11/04 10:25:13;;;;;;;;;;;;;;;11.08;94.81;100584.81;5108919;28;19915;-96
2022/11/04 10:27:41;;;;;;;;;;;;;;;11.12;94.61;100595.09;5099958;28;19927;-96
2022/11/04 10:30:07;;;;;;;;;;;;;;;11.15;94.29;100596.78;5083001;28;19948;-96
2022/11/04 10:32:52;;;;;;;;;;;;;;;11.20;94.38;100596.69;5081451;28;19912;-95
2022/11/04 10:35:25;;;;;;;;;;;;;;;11.24;94.17;100600.91;5075707;28;20006;-86
2022/11/04 10:37:52;;;;;;;;;;;;;;;11.26;93.91;100606.94;5095756;28;19919;-89
2022/11/04 10:40:25;;;;;;;;;;;;;;;11.31;92.68;100612.03;5084381;28;19913;-89
2022/11/04 10:42:52;;;;;;;;;;;;;;;11.30;91.23;100612.91;5075105;28;19958;-89
2022/11/04 10:45:19;;;;;;;;;;;;;;;11.28;92.09;100623.34;5076080;28;19920;-90
2022/11/04 10:47:57;;;;;;;;;;;;;;;11.32;92.07;100627.59;5075308;28;20357;-89
2022/11/04 10:50:29;;;;;;;;;;;;;;;11.40;92.78;100635.22;5074810;28;19912;-93
2022/11/04 10:53:01;;;;;;;;;;;;;;;11.46;90.95;100635.09;5075500;28;19920;-92
2022/11/04 10:55:33;;;;;;;;;;;;;;;11.47;90.77;100628.13;5075619;28;19912;-92
2022/11/04 10:57:58;;;;;;;;;;;;;;;11.55;91.94;100629.69;5075347;28;19912;-91
2022/11/04 11:00:37;;;;;;;;;;;;;;;11.66;92.08;100626.81;5078051;28;19965;-91
2022/11/04 11:03:03;;;;;;;;;;;;;;;11.77;90.71;100628.31;5089292;28;19916;-91
2022/11/04 11:05:28;;;;;;;;;;;;;;;11.84;91.27;100622.94;5075757;28;19908;-91
2022/11/04 11:07:56;;;;;;;;;;;;;;;11.93;91.41;100623.63;5075025;28;19912;-91
2022/11/04 11:10:29;;;;;;;;;;;;;;;12.03;91.58;100620.78;5074810;28;20368;-88
2022/11/04 11:12:56;;;;;;;;;;;;;;;12.08;89.54;100628.47;5075138;28;19913;-88
2022/11/04 11:15:26;;;;;;;;;;;;;;;12.08;90.37;100632.81;5074370;28;19908;-87
2022/11/04 11:18:06;;;;;;;;;;;;;;;12.10;90.43;100636.25;5074047;28;19913;-90
2022/11/04 11:20:33;;;;;;;;;;;;;;;12.13;90.91;100637.03;5074048;28;19919;-93
2022/11/04 11:23:00;;;;;;;;;;;;;;;12.15;90.52;100639.56;5074998;28;20269;-93
2022/11/04 11:25:27;;;;;;;;;;;;;;;12.13;90.50;100637.03;5074535;28;20356;-87
2022/11/04 11:27:58;;;;;;;;;;;;;;;12.08;90.59;100645.81;5082085;28;19912;-87
2022/11/04 11:30:24;;;;;;;;;;;;;;;12.04;90.50;100645.06;5094503;28;19920;-89
2022/11/04 11:32:55;;;;;;;;;;;;;;;11.98;90.73;100638.25;5094761;28;19911;-88
2022/11/04 11:35:22;;;;;;;;;;;;;;;12.01;90.61;100635.56;5094731;28;19951;-89
2022/11/04 11:37:47;;;;;;;;;;;;;;;12.02;88.99;100636.44;5094655;28;20013;-88
2022/11/04 11:40:26;;;;;;;;;;;;;;;12.00;89.82;100635.59;5093738;28;20019;-88
2022/11/04 11:42:52;;;;;;;;;;;;;;;11.97;90.11;100635.63;5087840;28;20377;-89
2022/11/04 11:45:19;;;;;;;;;;;;;;;11.96;90.05;100631.31;5073312;28;20004;-88
2022/11/04 11:47:46;;;;;;;;;;;;;;;11.93;90.15;100634.88;5073840;28;19912;-89
2022/11/04 11:50:17;;;;;;;;;;;;;;;11.89;90.19;100634.09;5073970;28;19909;-89
2022/11/04 11:52:46;;;;;;;;;;;;;;;11.86;90.43;100634.16;5074252;28;19952;-88
2022/11/04 11:55:17;;;;;;;;;;;;;;;11.85;87.70;100642.84;5071395;28;19962;-88
2022/11/04 11:57:54;;;;;;;;;;;;;;;11.86;88.38;100641.13;5073414;28;19927;-88
2022/11/04 12:00:21;;;;;;;;;;;;;;;11.90;89.46;100645.34;5073450;28;19919;-88
2022/11/04 12:02:50;;;;;;;;;;;;;;;11.93;89.33;100647.88;5073481;28;19966;-88
2022/11/04 12:05:18;;;;;;;;;;;;;;;11.94;88.70;100651.31;5073571;28;19912;-88
2022/11/04 12:07:43;;;;;;;;;;;;;;;11.94;86.42;100662.59;5074854;28;20342;-88
2022/11/04 12:10:17;;;;;;;;;;;;;;;11.87;85.63;100667.06;5073613;28;19916;-87
2022/11/04 12:12:57;;;;;;;;;;;;;;;11.80;85.17;100665.53;5073570;28;19938;-89
2022/11/04 12:15:28;;;;;;;;;;;;;;;11.82;87.44;100668.06;5074582;28;19965;-88
2022/11/04 12:18:12;;;;;;;;;;;;;;;11.86;87.93;100675.75;5074863;28;19988;-89
2022/11/04 12:20:44;;;;;;;;;;;;;;;11.90;87.54;100668.75;5071019;28;19917;-88
2022/11/04 12:23:12;;;;;;;;;;;;;;;11.93;88.30;100676.47;5072573;28;19916;-88
2022/11/04 12:25:50;;;;;;;;;;;;;;;11.95;88.21;100671.22;5077006;28;19920;-90
2022/11/04 12:28:30;;;;;;;;;;;;;;;11.98;85.17;100674.66;5076172;28;19912;-89
2022/11/04 12:31:08;;;;;;;;;;;;;;;11.94;84.27;100675.59;5074808;28;19924;-86
2022/11/04 12:33:52;;;;;;;;;;;;;;;11.89;83.30;100680.03;5076641;28;19939;-88
2022/11/04 12:36:29;;;;;;;;;;;;;;;11.88;83.29;100687.00;5076170;28;19965;-90
2022/11/04 12:39:09;;;;;;;;;;;;;;;11.99;85.09;100693.72;5082000;28;19919;-90
2022/11/04 12:41:44;;;;;;;;;;;;;;;12.11;85.77;100698.63;5097293;28;19912;-89
2022/11/04 12:44:28;;;;;;;;;;;;;;;12.25;85.68;100708.69;5098071;28;19977;-90
2022/11/04 12:46:59;;;;;;;;;;;;;;;12.35;85.20;100704.13;5097076;28;20453;-89
2022/11/04 12:49:27;;;;;;;;;;;;;;;12.35;81.74;100710.16;5097439;28;19912;-89
2022/11/04 12:51:56;;;;;;;;;;;;;;;12.29;81.61;100710.34;5097548;28;19954;-89
2022/11/04 12:54:32;;;;;;;;;;;;;;;12.28;82.90;100702.56;5097860;28;20016;-89
2022/11/04 12:57:12;;;;;;;;;;;;;;;12.21;83.74;100707.06;5090627;28;19935;-89
2022/11/04 13:00:00;;;;;;;;;;;;;;;12.17;84.65;100711.47;5076932;28;20022;-90
2022/11/04 13:02:29;;;;;;;;;;;;;;;12.14;84.87;100714.16;5077400;28;19912;-89
2022/11/04 13:05:16;;;;;;;;;;;;;;;12.16;85.47;100714.13;5076992;28;19912;-89
2022/11/04 13:07:52;;;;;;;;;;;;;;;12.18;84.67;100717.56;5057524;28;19913;-94
2022/11/04 13:10:31;;;;;;;;;;;;;;;12.21;85.41;100722.69;5057213;28;19912;-90
2022/11/04 13:12:59;;;;;;;;;;;;;;;12.24;84.35;100721.75;5057539;28;20047;-92
2022/11/04 13:15:27;;;;;;;;;;;;;;;12.25;84.75;100728.66;5057604;28;19913;-92
2022/11/04 13:17:57;;;;;;;;;;;;;;;12.30;85.40;100734.59;5057526;28;19920;-90